createdAt,value
2018-04-15T00:00:29.928Z,987.67
2018-04-15T00:01:30.232Z,987.68
2018-04-15T00:02:30.276Z,987.64
2018-04-15T00:03:30.675Z,987.64
2018-04-15T00:04:30.595Z,987.61
2018-04-15T00:05:31.075Z,987.60
2018-04-15T00:06:30.873Z,987.61
2018-04-15T00:07:31.042Z,987.60
2018-04-15T00:08:31.507Z,987.58
2018-04-15T00:09:31.424Z,987.62
2018-04-15T00:10:31.729Z,987.62
2018-04-15T00:11:31.781Z,987.59
2018-04-15T00:12:31.956Z,987.58
2018-04-15T00:13:32.366Z,987.58
2018-04-15T00:14:32.286Z,987.57
2018-04-15T00:15:32.483Z,987.50
2018-04-15T00:16:32.661Z,987.49
2018-04-15T00:17:32.905Z,987.49
2018-04-15T00:18:32.950Z,987.42
2018-04-15T00:19:33.333Z,987.45
2018-04-15T00:20:33.251Z,987.44
2018-04-15T00:21:33.552Z,987.43
2018-04-15T00:22:33.593Z,987.38
2018-04-15T00:23:33.974Z,987.44
2018-04-15T00:24:33.984Z,987.38
2018-04-15T00:25:34.028Z,987.36
2018-04-15T00:26:34.413Z,987.36
2018-04-15T00:27:34.326Z,987.32
2018-04-15T00:28:34.628Z,987.39
2018-04-15T00:29:34.676Z,987.34
2018-04-15T00:30:35.051Z,987.38
2018-04-15T00:31:34.972Z,987.39
2018-04-15T00:32:35.273Z,987.41
2018-04-15T00:33:35.318Z,987.39
2018-04-15T00:34:35.491Z,987.45
2018-04-15T00:35:35.652Z,987.42
2018-04-15T00:36:35.921Z,987.43
2018-04-15T00:37:35.963Z,987.42
2018-04-15T00:38:36.241Z,987.39
2018-04-15T00:39:36.357Z,987.39
2018-04-15T00:40:36.400Z,987.34
2018-04-15T00:41:36.774Z,987.36
2018-04-15T00:42:36.690Z,987.29
2018-04-15T00:43:36.993Z,987.26
2018-04-15T00:44:37.042Z,987.23
2018-04-15T00:45:37.419Z,987.19
2018-04-15T00:46:37.339Z,987.19
2018-04-15T00:47:37.745Z,987.12
2018-04-15T00:48:37.961Z,987.15
2018-04-15T00:49:38.416Z,987.15
2018-04-15T00:50:38.743Z,987.15
2018-04-15T00:51:38.751Z,987.15
2018-04-15T00:52:39.126Z,987.13
2018-04-15T00:53:39.025Z,987.14
2018-04-15T00:54:39.346Z,987.17
2018-04-15T00:55:39.288Z,987.13
2018-04-15T00:56:39.804Z,987.14
2018-04-15T00:57:39.624Z,987.12
2018-04-15T00:58:39.616Z,987.15
2018-04-15T00:59:39.799Z,987.12
2018-04-15T01:00:39.718Z,987.12
2018-04-15T01:01:39.994Z,987.12
2018-04-15T01:02:40.130Z,987.11
2018-04-15T01:03:40.416Z,987.10
2018-04-15T01:04:40.625Z,987.10
2018-04-15T01:05:40.510Z,987.08
2018-04-15T01:06:40.854Z,987.13
2018-04-15T01:07:41.018Z,987.11
2018-04-15T01:08:41.418Z,987.08
2018-04-15T01:09:41.281Z,987.10
2018-04-15T01:10:42.716Z,987.08
2018-04-15T01:11:41.757Z,987.05
2018-04-15T01:12:41.878Z,987.10
2018-04-15T01:13:42.079Z,987.08
2018-04-15T01:14:42.141Z,987.06
2018-04-15T01:15:42.376Z,987.06
2018-04-15T01:16:42.719Z,987.06
2018-04-15T01:17:42.819Z,987.09
2018-04-15T01:18:43.189Z,987.08
2018-04-15T01:19:43.228Z,987.08
2018-04-15T01:20:43.071Z,987.07
2018-04-15T01:21:43.422Z,987.05
2018-04-15T01:22:43.563Z,987.00
2018-04-15T01:23:43.637Z,987.01
2018-04-15T01:24:43.684Z,986.98
2018-04-15T01:25:44.066Z,987.03
2018-04-15T01:26:44.705Z,986.98
2018-04-15T01:27:44.351Z,987.00
2018-04-15T01:28:44.277Z,987.00
2018-04-15T01:29:44.487Z,987.00
2018-04-15T01:30:44.630Z,986.95
2018-04-15T01:31:44.928Z,986.93
2018-04-15T01:32:44.983Z,986.95
2018-04-15T01:33:45.366Z,986.93
2018-04-15T01:34:45.614Z,986.94
2018-04-15T01:35:45.413Z,986.96
2018-04-15T01:36:45.791Z,986.91
2018-04-15T01:37:45.713Z,986.92
2018-04-15T01:38:46.117Z,986.91
2018-04-15T01:39:46.129Z,986.90
2018-04-15T01:40:46.507Z,986.90
2018-04-15T01:41:46.353Z,986.96
2018-04-15T01:42:46.648Z,986.92
2018-04-15T01:43:47.604Z,986.93
2018-04-15T01:44:47.259Z,986.93
2018-04-15T01:45:47.165Z,986.86
2018-04-15T01:46:47.459Z,986.89
2018-04-15T01:47:47.461Z,986.90
2018-04-15T01:48:47.841Z,986.87
2018-04-15T01:49:47.935Z,986.87
2018-04-15T01:50:47.975Z,986.86
2018-04-15T01:51:48.510Z,986.83
2018-04-15T01:52:48.299Z,986.84
2018-04-15T01:53:48.574Z,986.83
2018-04-15T01:54:48.770Z,986.81
2018-04-15T01:55:49.739Z,986.79
2018-04-15T01:59:53.231Z,986.84
2018-04-15T02:00:52.520Z,986.87
2018-04-15T02:01:52.686Z,986.88
2018-04-15T02:02:52.855Z,986.88
2018-04-15T02:03:53.023Z,986.91
2018-04-15T02:04:53.193Z,986.92
2018-04-15T02:05:53.358Z,986.91
2018-04-15T02:06:53.531Z,986.91
2018-04-15T02:07:53.697Z,986.92
2018-04-15T02:08:53.860Z,986.94
2018-04-15T02:09:54.028Z,986.89
2018-04-15T02:10:54.201Z,986.93
2018-04-15T02:11:54.379Z,986.88
2018-04-15T02:12:54.541Z,986.89
2018-04-15T02:13:54.708Z,986.86
2018-04-15T02:14:54.886Z,986.90
2018-04-15T02:15:55.062Z,986.90
2018-04-15T02:16:55.233Z,986.89
2018-04-15T02:17:55.405Z,986.90
2018-04-15T02:18:55.575Z,986.85
2018-04-15T02:19:55.745Z,986.85
2018-04-15T02:20:55.912Z,986.84
2018-04-15T02:21:56.082Z,986.81
2018-04-15T02:22:56.250Z,986.79
2018-04-15T02:23:56.412Z,986.78
2018-04-15T02:24:56.585Z,986.75
2018-04-15T02:25:56.755Z,986.72
2018-04-15T02:26:56.932Z,986.73
2018-04-15T02:27:57.105Z,986.73
2018-04-15T02:28:57.273Z,986.69
2018-04-15T02:29:57.445Z,986.70
2018-04-15T02:30:57.609Z,986.71
2018-04-15T02:31:57.780Z,986.73
2018-04-15T02:32:57.947Z,986.69
2018-04-15T02:33:58.118Z,986.66
2018-04-15T02:34:58.283Z,986.65
2018-04-15T02:35:58.453Z,986.61
2018-04-15T02:36:58.629Z,986.60
2018-04-15T02:37:58.794Z,986.56
2018-04-15T02:38:58.960Z,986.58
2018-04-15T02:39:59.152Z,986.54
2018-04-15T02:40:59.305Z,986.52
2018-04-15T02:41:59.467Z,986.52
2018-04-15T02:42:59.635Z,986.50
2018-04-15T02:43:59.801Z,986.50
2018-04-15T02:44:59.983Z,986.47
2018-04-15T02:46:00.127Z,986.45
2018-04-15T02:47:00.319Z,986.43
2018-04-15T02:48:00.481Z,986.45
2018-04-15T02:49:00.648Z,986.41
2018-04-15T02:50:00.816Z,986.41
2018-04-15T02:51:01.001Z,986.42
2018-04-15T02:52:01.164Z,986.39
2018-04-15T02:53:01.332Z,986.40
2018-04-15T02:54:01.504Z,986.41
2018-04-15T02:55:01.678Z,986.38
2018-04-15T02:56:01.842Z,986.40
2018-04-15T02:57:02.018Z,986.37
2018-04-15T02:58:02.188Z,986.35
2018-04-15T02:59:02.362Z,986.38
2018-04-15T03:00:02.531Z,986.36
2018-04-15T03:01:02.690Z,986.34
2018-04-15T03:02:02.858Z,986.35
2018-04-15T03:03:03.029Z,986.34
2018-04-15T03:04:03.197Z,986.34
2018-04-15T03:05:03.361Z,986.36
2018-04-15T03:06:03.531Z,986.37
2018-04-15T03:07:03.702Z,986.39
2018-04-15T03:08:03.863Z,986.39
2018-04-15T03:09:04.031Z,986.43
2018-04-15T03:10:04.194Z,986.42
2018-04-15T03:11:04.372Z,986.45
2018-04-15T03:12:04.544Z,986.51
2018-04-15T03:13:04.708Z,986.49
2018-04-15T03:14:04.879Z,986.49
2018-04-15T03:15:05.052Z,986.53
2018-04-15T03:16:05.214Z,986.45
2018-04-15T03:17:05.397Z,986.43
2018-04-15T03:18:05.559Z,986.41
2018-04-15T03:19:05.731Z,986.41
2018-04-15T03:20:05.895Z,986.37
2018-04-15T03:21:06.075Z,986.34
2018-04-15T03:22:06.244Z,986.34
2018-04-15T03:23:06.412Z,986.34
2018-04-15T03:24:06.579Z,986.32
2018-04-15T03:25:06.743Z,986.32
2018-04-15T03:26:06.909Z,986.29
2018-04-15T03:27:07.088Z,986.32
2018-04-15T03:28:07.267Z,986.31
2018-04-15T03:29:07.433Z,986.28
2018-04-15T03:30:07.601Z,986.25
2018-04-15T03:31:07.767Z,986.26
2018-04-15T03:32:07.936Z,986.25
2018-04-15T03:33:08.108Z,986.23
2018-04-15T03:34:08.274Z,986.23
2018-04-15T03:35:08.446Z,986.23
2018-04-15T03:36:08.612Z,986.22
2018-04-15T03:37:08.780Z,986.22
2018-04-15T03:38:08.953Z,986.25
2018-04-15T03:39:09.127Z,986.22
2018-04-15T03:40:09.288Z,986.21
2018-04-15T03:41:09.457Z,986.20
2018-04-15T03:42:09.621Z,986.19
2018-04-15T03:43:09.787Z,986.18
2018-04-15T03:44:09.958Z,986.19
2018-04-15T03:45:10.124Z,986.17
2018-04-15T03:46:10.303Z,986.17
2018-04-15T03:47:10.473Z,986.14
2018-04-15T03:48:10.648Z,986.16
2018-04-15T03:49:10.810Z,986.12
2018-04-15T03:50:10.976Z,986.15
2018-04-15T03:51:11.143Z,986.16
2018-04-15T03:52:11.307Z,986.21
2018-04-15T03:53:11.484Z,986.17
2018-04-15T03:54:11.656Z,986.19
2018-04-15T03:55:11.838Z,986.15
2018-04-15T03:56:11.987Z,986.19
2018-04-15T03:57:12.154Z,986.13
2018-04-15T03:58:12.327Z,986.14
2018-04-15T03:59:12.492Z,986.14
2018-04-15T04:00:12.656Z,986.12
2018-04-15T04:01:12.822Z,986.10
2018-04-15T04:02:12.999Z,986.08
2018-04-15T04:03:13.205Z,986.06
2018-04-15T04:04:13.314Z,986.05
2018-04-15T04:05:13.488Z,986.02
2018-04-15T04:06:13.653Z,986.00
2018-04-15T04:07:13.819Z,985.96
2018-04-15T04:08:13.990Z,985.95
2018-04-15T04:09:14.151Z,985.91
2018-04-15T04:10:14.317Z,985.93
2018-04-15T04:11:14.490Z,985.95
2018-04-15T04:12:14.659Z,985.96
2018-04-15T04:13:14.834Z,985.97
2018-04-15T04:14:15.011Z,986.00
2018-04-15T04:15:15.188Z,985.97
2018-04-15T04:16:15.353Z,985.97
2018-04-15T04:17:15.547Z,985.99
2018-04-15T04:18:15.704Z,985.96
2018-04-15T04:19:15.872Z,985.93
2018-04-15T04:20:16.041Z,986.01
2018-04-15T04:21:16.209Z,985.96
2018-04-15T04:22:16.372Z,985.92
2018-04-15T04:23:16.543Z,985.92
2018-04-15T04:24:16.709Z,985.92
2018-04-15T04:25:16.884Z,985.93
2018-04-15T04:26:17.052Z,985.91
2018-04-15T04:27:17.217Z,985.91
2018-04-15T04:28:17.385Z,985.92
2018-04-15T04:29:17.556Z,985.91
2018-04-15T04:30:17.731Z,985.88
2018-04-15T04:31:17.896Z,985.87
2018-04-15T04:32:18.059Z,985.84
2018-04-15T04:33:18.222Z,985.77
2018-04-15T04:34:18.389Z,985.77
2018-04-15T04:35:18.562Z,985.76
2018-04-15T04:36:18.970Z,985.74
2018-04-15T04:37:18.859Z,985.72
2018-04-15T04:38:19.035Z,985.73
2018-04-15T04:39:19.200Z,985.69
2018-04-15T04:40:19.375Z,985.75
2018-04-15T04:41:19.542Z,985.74
2018-04-15T04:42:19.709Z,985.78
2018-04-15T04:43:19.875Z,985.75
2018-04-15T04:44:20.042Z,985.77
2018-04-15T04:45:20.210Z,985.71
2018-04-15T04:46:20.371Z,985.70
2018-04-15T04:47:20.535Z,985.71
2018-04-15T04:48:20.701Z,985.68
2018-04-15T04:49:22.483Z,985.72
2018-04-15T04:50:21.067Z,985.70
2018-04-15T04:51:21.236Z,985.73
2018-04-15T04:52:21.408Z,985.67
2018-04-15T04:53:21.575Z,985.67
2018-04-15T04:54:21.747Z,985.66
2018-04-15T04:55:21.912Z,985.65
2018-04-15T04:56:22.088Z,985.66
2018-04-15T04:57:22.253Z,985.67
2018-04-15T04:58:22.424Z,985.65
2018-04-15T04:59:22.595Z,985.64
2018-04-15T05:00:22.771Z,985.62
2018-04-15T05:01:22.935Z,985.66
2018-04-15T05:02:23.108Z,985.63
2018-04-15T05:03:23.279Z,985.65
2018-04-15T05:04:23.458Z,985.67
2018-04-15T05:05:23.621Z,985.64
2018-04-15T05:06:23.787Z,985.66
2018-04-15T05:07:23.961Z,985.63
2018-04-15T05:08:24.123Z,985.63
2018-04-15T05:09:24.288Z,985.66
2018-04-15T05:10:24.449Z,985.70
2018-04-15T05:11:24.619Z,985.65
2018-04-15T05:12:24.794Z,985.65
2018-04-15T05:13:24.961Z,985.59
2018-04-15T05:14:25.137Z,985.59
2018-04-15T05:15:25.311Z,985.59
2018-04-15T05:16:25.478Z,985.54
2018-04-15T05:17:25.645Z,985.53
2018-04-15T05:18:25.813Z,985.52
2018-04-15T05:19:25.984Z,985.57
2018-04-15T05:20:26.154Z,985.53
2018-04-15T05:21:26.313Z,985.53
2018-04-15T05:22:26.492Z,985.51
2018-04-15T05:23:26.657Z,985.56
2018-04-15T05:24:26.835Z,985.54
2018-04-15T05:25:27.009Z,985.52
2018-04-15T05:26:27.180Z,985.55
2018-04-15T05:27:27.357Z,985.54
2018-04-15T05:28:27.521Z,985.55
2018-04-15T05:29:27.688Z,985.54
2018-04-15T05:30:27.865Z,985.54
2018-04-15T05:31:28.036Z,985.53
2018-04-15T05:32:28.198Z,985.52
2018-04-15T05:33:28.374Z,985.48
2018-04-15T05:34:28.538Z,985.48
2018-04-15T05:35:28.708Z,985.50
2018-04-15T05:36:28.883Z,985.49
2018-04-15T05:37:29.084Z,985.55
2018-04-15T05:38:29.211Z,985.54
2018-04-15T05:39:29.377Z,985.52
2018-04-15T05:40:29.552Z,985.56
2018-04-15T05:41:29.729Z,985.55
2018-04-15T05:42:29.898Z,985.56
2018-04-15T05:43:30.069Z,985.58
2018-04-15T05:44:30.281Z,985.57
2018-04-15T05:45:30.421Z,985.56
2018-04-15T05:46:30.588Z,985.55
2018-04-15T05:47:31.705Z,985.57
2018-04-15T05:48:30.942Z,985.55
2018-04-15T05:49:31.106Z,985.57
2018-04-15T05:50:31.272Z,985.56
2018-04-15T05:51:31.441Z,985.55
2018-04-15T05:52:31.612Z,985.56
2018-04-15T05:53:31.781Z,985.60
2018-04-15T05:54:31.949Z,985.57
2018-04-15T05:55:32.119Z,985.60
2018-04-15T05:56:32.296Z,985.63
2018-04-15T05:57:32.468Z,985.61
2018-04-15T05:58:32.638Z,985.63
2018-04-15T05:59:32.824Z,985.61
2018-04-15T06:00:32.968Z,985.62
2018-04-15T06:01:33.711Z,985.63
2018-04-15T06:02:33.327Z,985.64
2018-04-15T06:03:33.488Z,985.65
2018-04-15T06:04:33.664Z,985.69
2018-04-15T06:05:34.713Z,985.69
2018-04-15T06:06:34.000Z,985.74
2018-04-15T06:07:34.173Z,985.78
2018-04-15T06:08:34.352Z,985.77
2018-04-15T06:09:34.522Z,985.80
2018-04-15T06:10:34.687Z,985.77
2018-04-15T06:11:34.852Z,985.77
2018-04-15T06:12:35.720Z,985.72
2018-04-15T06:13:35.194Z,985.67
2018-04-15T06:14:35.359Z,985.73
2018-04-15T06:15:35.533Z,985.76
2018-04-15T06:16:35.707Z,985.79
2018-04-15T06:17:35.882Z,985.79
2018-04-15T06:18:36.048Z,985.82
2018-04-15T06:19:37.221Z,985.79
2018-04-15T06:20:37.213Z,985.76
2018-04-15T06:21:37.211Z,985.76
2018-04-15T06:22:36.709Z,985.79
2018-04-15T06:23:36.875Z,985.80
2018-04-15T06:24:37.787Z,985.79
2018-04-15T06:25:37.235Z,985.82
2018-04-15T06:26:37.385Z,985.79
2018-04-15T06:27:37.558Z,985.78
2018-04-15T06:28:37.730Z,985.73
2018-04-15T06:29:37.905Z,985.73
2018-04-15T06:30:38.076Z,985.71
2018-04-15T06:31:38.406Z,985.72
2018-04-15T06:32:38.424Z,985.73
2018-04-15T06:33:38.594Z,985.73
2018-04-15T06:34:38.883Z,985.73
2018-04-15T06:35:38.943Z,985.75
2018-04-15T06:36:39.259Z,985.73
2018-04-15T06:37:39.238Z,985.74
2018-04-15T06:38:39.573Z,985.69
2018-04-15T06:39:39.608Z,985.69
2018-04-15T06:40:39.724Z,985.70
2018-04-15T06:41:39.995Z,985.70
2018-04-15T06:42:40.310Z,985.70
2018-04-15T06:43:40.371Z,985.70
2018-04-15T06:44:40.535Z,985.75
2018-04-15T06:45:40.705Z,985.73
2018-04-15T06:46:40.876Z,985.74
2018-04-15T06:47:41.044Z,985.75
2018-04-15T06:48:41.219Z,985.74
2018-04-15T06:49:41.386Z,985.73
2018-04-15T06:50:41.566Z,985.72
2018-04-15T06:51:42.218Z,985.70
2018-04-15T06:52:43.258Z,985.67
2018-04-15T06:53:42.071Z,985.63
2018-04-15T06:54:42.239Z,985.62
2018-04-15T06:55:42.435Z,985.64
2018-04-15T06:56:42.580Z,985.64
2018-04-15T06:57:42.848Z,985.65
2018-04-15T06:58:42.878Z,985.61
2018-04-15T06:59:43.046Z,985.59
2018-04-15T07:00:43.217Z,985.54
2018-04-15T07:01:44.233Z,985.56
2018-04-15T07:02:43.627Z,985.54
2018-04-15T07:03:43.658Z,985.57
2018-04-15T07:04:43.835Z,985.58
2018-04-15T07:05:44.007Z,985.55
2018-04-15T07:06:45.227Z,985.55
2018-04-15T07:07:44.319Z,985.57
2018-04-15T07:08:44.523Z,985.57
2018-04-15T07:09:45.306Z,985.55
2018-04-15T07:10:45.732Z,985.55
2018-04-15T07:11:45.739Z,985.55
2018-04-15T07:12:46.907Z,985.59
2018-04-15T07:13:45.332Z,985.58
2018-04-15T07:14:45.510Z,985.57
2018-04-15T07:15:46.220Z,985.60
2018-04-15T07:16:46.743Z,985.58
2018-04-15T07:17:46.725Z,985.59
2018-04-15T07:18:46.721Z,985.64
2018-04-15T07:19:46.405Z,985.60
2018-04-15T07:20:47.736Z,985.65
2018-04-15T07:21:47.294Z,985.63
2018-04-15T07:22:46.943Z,985.64
2018-04-15T07:23:47.117Z,985.65
2018-04-15T07:24:49.229Z,985.64
2018-04-15T07:25:49.725Z,985.71
2018-04-15T07:26:47.667Z,985.78
2018-04-15T07:27:49.245Z,985.77
2018-04-15T07:28:48.729Z,985.76
2018-04-15T07:29:49.228Z,985.77
2018-04-15T07:30:48.525Z,985.80
2018-04-15T07:31:48.432Z,985.81
2018-04-15T07:32:48.783Z,985.85
2018-04-15T07:33:48.754Z,985.83
2018-04-15T07:34:48.940Z,985.85
2018-04-15T07:35:49.118Z,985.88
2018-04-15T07:36:49.310Z,985.82
2018-04-15T07:37:49.505Z,985.87
2018-04-15T07:38:49.675Z,985.86
2018-04-15T07:39:50.845Z,985.88
2018-04-15T07:40:50.138Z,985.82
2018-04-15T07:41:50.241Z,985.84
2018-04-15T07:42:50.487Z,985.81
2018-04-15T07:43:50.707Z,985.79
2018-04-15T07:44:51.276Z,985.82
2018-04-15T07:45:50.836Z,985.81
2018-04-15T07:46:51.142Z,985.83
2018-04-15T07:47:51.127Z,985.84
2018-04-15T07:48:51.299Z,985.82
2018-04-15T07:49:51.618Z,985.80
2018-04-15T07:50:51.770Z,985.82
2018-04-15T07:51:51.820Z,985.79
2018-04-15T07:52:51.991Z,985.75
2018-04-15T07:53:52.345Z,985.78
2018-04-15T07:54:52.394Z,985.77
2018-04-15T07:55:52.596Z,985.80
2018-04-15T07:56:52.802Z,985.79
2018-04-15T07:57:52.874Z,985.79
2018-04-15T07:58:53.019Z,985.79
2018-04-15T07:59:53.372Z,985.79
2018-04-15T08:00:53.427Z,985.76
2018-04-15T08:01:53.810Z,985.76
2018-04-15T08:02:54.220Z,985.74
2018-04-15T08:03:54.136Z,985.76
2018-04-15T08:04:54.411Z,985.72
2018-04-15T08:05:55.216Z,985.75
2018-04-15T08:06:54.665Z,985.75
2018-04-15T08:07:54.798Z,985.78
2018-04-15T08:08:54.770Z,985.74
2018-04-15T08:09:55.972Z,985.76
2018-04-15T08:10:55.089Z,985.72
2018-04-15T08:11:55.361Z,985.69
2018-04-15T08:12:55.559Z,985.68
2018-04-15T08:13:55.656Z,985.70
2018-04-15T08:14:55.856Z,985.67
2018-04-15T08:15:57.473Z,985.67
2018-04-15T08:16:56.120Z,985.67
2018-04-15T08:17:56.208Z,985.66
2018-04-15T08:18:56.393Z,985.64
2018-04-15T08:19:56.607Z,985.65
2018-04-15T08:20:57.884Z,985.60
2018-04-15T08:21:57.850Z,985.57
2018-04-15T08:22:57.200Z,985.55
2018-04-15T08:23:57.307Z,985.53
2018-04-15T08:24:57.693Z,985.52
2018-04-15T08:25:58.064Z,985.53
2018-04-15T08:26:58.074Z,985.55
2018-04-15T08:27:58.111Z,985.52
2018-04-15T08:28:58.379Z,985.51
2018-04-15T08:29:58.566Z,985.48
2018-04-15T08:30:59.421Z,985.45
2018-04-15T08:31:58.785Z,985.44
2018-04-15T08:32:58.859Z,985.46
2018-04-15T08:33:59.090Z,985.48
2018-04-15T08:34:59.195Z,985.47
2018-04-15T08:35:59.313Z,985.50
2018-04-15T08:36:59.657Z,985.50
2018-04-15T08:37:59.780Z,985.50
2018-04-15T08:39:00.130Z,985.52
2018-04-15T08:40:00.021Z,985.52
2018-04-15T08:41:00.197Z,985.52
2018-04-15T08:42:00.447Z,985.54
2018-04-15T08:43:01.424Z,985.47
2018-04-15T08:44:00.655Z,985.47
2018-04-15T08:45:00.899Z,985.50
2018-04-15T08:46:01.742Z,985.44
2018-04-15T08:47:01.493Z,985.45
2018-04-15T08:48:01.435Z,985.41
2018-04-15T08:49:01.608Z,985.46
2018-04-15T08:50:01.791Z,985.54
2018-04-15T08:51:02.221Z,985.42
2018-04-15T08:52:02.190Z,985.41
2018-04-15T08:53:02.552Z,985.38
2018-04-15T08:54:02.594Z,985.32
2018-04-15T08:55:02.786Z,985.40
2018-04-15T08:56:02.969Z,985.32
2018-04-15T08:57:03.184Z,985.31
2018-04-15T08:58:03.317Z,985.24
2018-04-15T08:59:03.502Z,985.23
2018-04-15T09:00:03.816Z,985.30
2018-04-15T09:01:03.991Z,985.26
2018-04-15T09:02:04.077Z,985.27
2018-04-15T09:03:04.363Z,985.21
2018-04-15T09:04:04.424Z,985.21
2018-04-15T09:05:04.934Z,985.26
2018-04-15T09:06:04.781Z,985.33
2018-04-15T09:07:04.960Z,985.42
2018-04-15T09:08:05.211Z,985.30
2018-04-15T09:09:05.489Z,985.23
2018-04-15T09:10:05.622Z,985.38
2018-04-15T09:11:05.764Z,985.14
2018-04-15T09:12:06.080Z,985.07
2018-04-15T09:13:06.102Z,985.06
2018-04-15T09:14:06.296Z,985.40
2018-04-15T09:15:06.427Z,985.17
2018-04-15T09:16:07.286Z,985.35
2018-04-15T09:17:06.708Z,985.40
2018-04-15T09:18:06.946Z,985.63
2018-04-15T09:19:07.140Z,986.00
2018-04-15T09:20:07.178Z,985.81
2018-04-15T09:21:07.249Z,985.81
2018-04-15T09:22:07.465Z,985.42
2018-04-15T09:23:07.929Z,985.23
2018-04-15T09:24:09.054Z,985.11
2018-04-15T09:25:08.354Z,985.01
2018-04-15T09:26:08.300Z,985.00
2018-04-15T09:27:08.513Z,985.15
2018-04-15T09:28:08.789Z,985.38
2018-04-15T09:29:08.876Z,985.43
2018-04-15T09:30:09.248Z,985.39
2018-04-15T09:31:09.456Z,985.36
2018-04-15T09:32:09.445Z,985.29
2018-04-15T09:33:10.006Z,985.36
2018-04-15T09:34:10.134Z,985.35
2018-04-15T09:35:10.234Z,985.32
2018-04-15T09:36:10.576Z,985.24
2018-04-15T09:37:10.328Z,985.26
2018-04-15T09:38:11.001Z,985.22
2018-04-15T09:39:10.752Z,985.24
2018-04-15T09:40:11.008Z,985.27
2018-04-15T09:41:11.209Z,985.27
2018-04-15T09:42:11.716Z,985.28
2018-04-15T09:43:12.322Z,985.36
2018-04-15T09:44:11.847Z,985.28
2018-04-15T09:45:12.369Z,985.17
2018-04-15T09:46:12.229Z,984.51
2018-04-15T09:47:12.462Z,984.88
2018-04-15T09:48:13.262Z,984.88
2018-04-15T09:49:12.876Z,984.87
2018-04-15T09:50:13.910Z,984.83
2018-04-15T09:51:13.792Z,984.85
2018-04-15T09:52:14.281Z,984.84
2018-04-15T09:53:14.494Z,984.85
2018-04-15T09:54:13.870Z,984.91
2018-04-15T09:55:14.028Z,985.39
2018-04-15T09:56:14.248Z,985.98
2018-04-15T09:57:14.475Z,985.57
2018-04-15T09:58:16.045Z,985.61
2018-04-15T09:59:15.043Z,986.34
2018-04-15T10:00:15.147Z,986.58
2018-04-15T10:01:15.453Z,986.61
2018-04-15T10:02:15.816Z,986.56
2018-04-15T10:03:16.768Z,986.59
2018-04-15T10:04:16.014Z,986.51
2018-04-15T10:05:16.695Z,986.51
2018-04-15T10:06:17.396Z,986.48
2018-04-15T10:07:16.741Z,986.52
2018-04-15T10:08:16.848Z,986.46
2018-04-15T10:09:17.124Z,986.43
2018-04-15T10:10:17.295Z,986.23
2018-04-15T10:11:18.365Z,985.82
2018-04-15T10:12:18.285Z,985.64
2018-04-15T10:13:17.970Z,985.49
2018-04-15T10:14:18.172Z,985.38
2018-04-15T10:15:19.265Z,985.32
2018-04-15T10:16:18.796Z,985.31
2018-04-15T10:17:19.253Z,985.29
2018-04-15T10:18:19.764Z,985.26
2018-04-15T10:19:19.155Z,985.31
2018-04-15T10:20:19.635Z,985.25
2018-04-15T10:21:20.375Z,985.26
2018-04-15T10:22:19.886Z,985.24
2018-04-15T10:23:20.845Z,985.30
2018-04-15T10:24:20.095Z,985.39
2018-04-15T10:25:20.626Z,985.46
2018-04-15T10:26:20.824Z,985.34
2018-04-15T10:27:21.046Z,985.41
2018-04-15T10:28:22.431Z,985.46
2018-04-15T10:29:22.116Z,985.50
2018-04-15T10:30:21.433Z,985.49
2018-04-15T10:31:22.671Z,985.47
2018-04-15T10:32:22.729Z,985.47
2018-04-15T10:33:22.079Z,985.55
2018-04-15T10:34:22.129Z,985.48
2018-04-15T10:35:22.538Z,985.44
2018-04-15T10:36:22.809Z,985.39
2018-04-15T10:37:22.523Z,985.38
2018-04-15T10:38:22.711Z,985.35
2018-04-15T10:39:23.785Z,985.32
2018-04-15T10:40:23.795Z,985.28
2018-04-15T10:41:24.347Z,985.08
2018-04-15T10:42:23.588Z,984.90
2018-04-15T10:43:24.134Z,985.31
2018-04-15T10:44:25.169Z,985.66
2018-04-15T10:45:24.326Z,985.71
2018-04-15T10:46:24.559Z,985.76
2018-04-15T10:47:24.683Z,985.74
2018-04-15T10:48:25.261Z,985.66
2018-04-15T10:49:25.415Z,985.58
2018-04-15T10:50:25.554Z,985.53
2018-04-15T10:51:26.421Z,985.47
2018-04-15T10:52:26.378Z,985.36
2018-04-15T10:53:25.979Z,985.02
2018-04-15T10:54:26.480Z,984.94
2018-04-15T10:55:26.389Z,984.48
2018-04-15T10:56:27.483Z,984.54
2018-04-15T10:57:27.131Z,984.56
2018-04-15T10:58:27.529Z,984.65
2018-04-15T10:59:27.875Z,984.65
2018-04-15T11:00:27.407Z,984.56
2018-04-15T11:01:27.647Z,984.44
2018-04-15T11:02:49.771Z,984.44
2018-04-15T11:03:28.105Z,984.40
2018-04-15T11:04:28.354Z,984.40
2018-04-15T11:05:28.567Z,984.40
2018-04-15T11:06:29.077Z,984.42
2018-04-15T11:07:29.765Z,984.45
2018-04-15T11:08:29.284Z,984.46
2018-04-15T11:09:29.489Z,984.44
2018-04-15T11:10:29.584Z,984.42
2018-04-15T11:11:30.213Z,984.39
2018-04-15T11:12:29.950Z,984.47
2018-04-15T11:13:30.170Z,984.38
2018-04-15T11:14:30.761Z,984.35
2018-04-15T11:15:30.530Z,984.33
2018-04-15T11:16:30.731Z,984.27
2018-04-15T11:17:31.282Z,984.29
2018-04-15T11:18:31.263Z,984.27
2018-04-15T11:19:31.210Z,984.26
2018-04-15T11:20:31.742Z,984.27
2018-04-15T11:21:32.018Z,984.25
2018-04-15T11:22:32.085Z,984.21
2018-04-15T11:23:32.355Z,984.18
2018-04-15T11:24:32.509Z,984.17
2018-04-15T11:25:32.492Z,984.16
2018-04-15T11:26:32.760Z,984.14
2018-04-15T11:27:33.007Z,984.16
2018-04-15T11:28:33.064Z,984.13
2018-04-15T11:29:33.516Z,984.08
2018-04-15T11:30:33.650Z,984.09
2018-04-15T11:31:33.946Z,984.11
2018-04-15T11:32:33.989Z,984.06
2018-04-15T11:33:34.930Z,984.04
2018-04-15T11:34:34.480Z,984.08
2018-04-15T11:35:34.453Z,984.14
2018-04-15T11:36:34.898Z,984.14
2018-04-15T11:37:35.900Z,984.09
2018-04-15T11:38:35.424Z,984.09
2018-04-15T11:39:35.406Z,984.07
2018-04-15T11:40:35.551Z,984.01
2018-04-15T11:41:35.677Z,983.99
2018-04-15T11:42:36.157Z,983.97
2018-04-15T11:43:36.285Z,983.98
2018-04-15T11:44:36.899Z,983.95
2018-04-15T11:45:36.399Z,983.91
2018-04-15T11:46:36.975Z,983.89
2018-04-15T11:47:37.126Z,983.84
2018-04-15T11:48:36.951Z,983.81
2018-04-15T11:49:37.219Z,983.82
2018-04-15T11:50:37.545Z,983.78
2018-04-15T11:51:38.520Z,983.75
2018-04-15T11:52:37.602Z,983.71
2018-04-15T11:53:37.910Z,983.71
2018-04-15T11:54:38.782Z,983.78
2018-04-15T11:55:38.773Z,983.73
2018-04-15T11:56:38.396Z,983.73
2018-04-15T11:57:38.604Z,983.69
2018-04-15T11:58:38.925Z,983.70
2018-04-15T11:59:39.792Z,983.67
2018-04-15T12:00:39.160Z,983.71
2018-04-15T12:01:39.381Z,983.66
2018-04-15T12:02:40.263Z,983.62
2018-04-15T12:03:39.983Z,983.64
2018-04-15T12:04:40.790Z,983.60
2018-04-15T12:05:40.211Z,983.61
2018-04-15T12:06:41.288Z,983.61
2018-04-15T12:07:40.612Z,983.73
2018-04-15T12:08:40.769Z,983.73
2018-04-15T12:09:41.789Z,983.66
2018-04-15T12:10:42.766Z,983.69
2018-04-15T12:11:42.283Z,983.62
2018-04-15T12:12:41.548Z,983.62
2018-04-15T12:13:42.263Z,983.71
2018-04-15T12:14:42.111Z,983.72
2018-04-15T12:15:42.229Z,983.61
2018-04-15T12:16:42.430Z,983.56
2018-04-15T12:17:43.278Z,983.55
2018-04-15T12:18:43.776Z,983.48
2018-04-15T12:19:42.997Z,983.45
2018-04-15T12:20:43.184Z,983.45
2018-04-15T12:21:43.379Z,983.48
2018-04-15T12:22:43.656Z,983.56
2018-04-15T12:23:44.280Z,983.56
2018-04-15T12:24:44.778Z,983.46
2018-04-15T12:25:44.177Z,983.48
2018-04-15T12:26:44.401Z,983.49
2018-04-15T12:27:44.554Z,983.44
2018-04-15T12:28:44.753Z,983.42
2018-04-15T12:29:44.921Z,983.42
2018-04-15T12:30:45.300Z,983.43
2018-04-15T12:31:45.306Z,983.36
2018-04-15T12:32:45.476Z,983.31
2018-04-15T12:33:45.694Z,983.35